Time;durP1;ratioP1;P1;durP2;ratioP2;P2;SDS_P1;SDS_P2;PMS_P1;PMS_P2;Temp;Humidity;BMP_temperature;BMP_pressure;BME280_temperature;BME280_humidity;BME280_pressure;Samples;Min_cycle;Max_cycle;Signal;HPM_P1;HPM_P2
2022/03/30 00:01:09;;;;;;;;;;;;;;;;;;5048829;28;19928;-79
2022/03/30 00:03:34;;;;;;;;;;;;;;;;;;5083775;28;19920;-80
2022/03/30 00:06:00;;;;;;;;;;;;;;;;;;5072665;28;20042;-77
2022/03/30 00:08:25;;;;;;;;;;;;;;;;;;5078099;28;20257;-79
2022/03/30 00:10:50;;;;;;;;;;;;;;;;;;5074920;28;20372;-78
2022/03/30 00:13:17;;;;;;;;;;;;;;;;;;5071163;28;20521;-81
2022/03/30 00:15:43;;;;;;;;;;;;;;;;;;5046354;28;19932;-80
2022/03/30 00:18:08;;;;;;;;;;;;;;;;;;5083639;28;20310;-80
2022/03/30 00:20:34;;;;;;;;;;;;;;;;;;5059716;28;20021;-79
2022/03/30 00:22:59;;;;;;;;;;;;;;;;;;5065755;28;19920;-80
2022/03/30 00:25:25;;;;;;;;;;;;;;;;;;5095867;28;19924;-78
2022/03/30 00:27:50;;;;;;;;;;;;;;;;;;5095945;28;19923;-79
2022/03/30 00:30:16;;;;;;;;;;;;;;;;;;5095661;28;19922;-78
2022/03/30 00:32:42;;;;;;;;;;;;;;;;;;5073045;28;20671;-78
2022/03/30 00:35:08;;;;;;;;;;;;;;;;;;5058834;28;19917;-79
2022/03/30 00:37:34;;;;;;;;;;;;;;;;;;5085104;28;19978;-77
2022/03/30 00:40:00;;;;;;;;;;;;;;;;;;5075008;28;19928;-76
2022/03/30 00:42:25;;;;;;;;;;;;;;;;;;5066554;28;20339;-80
2022/03/30 00:44:51;;;;;;;;;;;;;;;;;;5057518;28;19923;-81
2022/03/30 00:47:18;;;;;;;;;;;;;;;;;;5075229;28;19922;-81
2022/03/30 00:49:44;;;;;;;;;;;;;;;;;;5075287;28;19975;-80
2022/03/30 00:52:10;;;;;;;;;;;;;;;;;;5086225;28;20467;-81
2022/03/30 00:54:40;;;;;;;;;;;;;;;;;;5075231;28;20016;-80
2022/03/30 00:57:07;;;;;;;;;;;;;;;;;;5088414;28;19972;-80
2022/03/30 00:59:33;;;;;;;;;;;;;;;;;;5095559;28;19958;-80
2022/03/30 01:01:59;;;;;;;;;;;;;;;;;;5095487;28;20396;-79
2022/03/30 01:04:28;;;;;;;;;;;;;;;;;;5095523;28;19927;-79
2022/03/30 01:06:54;;;;;;;;;;;;;;;;;;5092358;28;19912;-80
2022/03/30 01:09:20;;;;;;;;;;;;;;;;;;5086870;28;19916;-77
2022/03/30 01:11:47;;;;;;;;;;;;;;;;;;5082872;28;19924;-78
2022/03/30 01:14:13;;;;;;;;;;;;;;;;;;5085549;28;19992;-79
2022/03/30 01:16:39;;;;;;;;;;;;;;;;;;5074534;28;19996;-80
2022/03/30 01:19:06;;;;;;;;;;;;;;;;;;5060487;28;19960;-80
2022/03/30 01:21:31;;;;;;;;;;;;;;;;;;5069461;28;19922;-81
2022/03/30 01:23:57;;;;;;;;;;;;;;;;;;5070842;28;20291;-81
2022/03/30 01:26:24;;;;;;;;;;;;;;;;;;5068817;28;19979;-79
2022/03/30 01:28:49;;;;;;;;;;;;;;;;;;5062890;28;19985;-79
2022/03/30 01:33:58;;;;;;;;;;;;;;;;;;5055051;28;19947;-81
2022/03/30 01:36:25;;;;;;;;;;;;;;;;;;5057743;28;20444;-77
2022/03/30 01:38:51;;;;;;;;;;;;;;;;;;5069045;28;19967;-79
2022/03/30 01:41:16;;;;;;;;;;;;;;;;;;5053997;28;19960;-79
2022/03/30 01:43:42;;;;;;;;;;;;;;;;;;5054366;28;19999;-80
2022/03/30 01:46:07;;;;;;;;;;;;;;;;;;5061180;28;19920;-80
2022/03/30 01:48:33;;;;;;;;;;;;;;;;;;5065517;28;19921;-79
2022/03/30 01:50:59;;;;;;;;;;;;;;;;;;5064604;28;19964;-80
2022/03/30 01:53:25;;;;;;;;;;;;;;;;;;5060693;28;20304;-79
2022/03/30 01:55:51;;;;;;;;;;;;;;;;;;5053740;28;19936;-79
2022/03/30 01:58:17;;;;;;;;;;;;;;;;;;5060466;28;19974;-79
2022/03/30 02:00:43;;;;;;;;;;;;;;;;;;5063058;28;19920;-79
2022/03/30 02:03:08;;;;;;;;;;;;;;;;;;5058427;28;19928;-79
2022/03/30 02:05:34;;;;;;;;;;;;;;;;;;5060215;28;19917;-79
2022/03/30 02:07:59;;;;;;;;;;;;;;;;;;5054875;28;20090;-81
2022/03/30 02:10:25;;;;;;;;;;;;;;;;;;5068924;28;19920;-80
2022/03/30 02:12:50;;;;;;;;;;;;;;;;;;5069564;28;19931;-79
2022/03/30 02:15:16;;;;;;;;;;;;;;;;;;5054065;28;19932;-79
2022/03/30 02:17:41;;;;;;;;;;;;;;;;;;5068679;28;19920;-79
2022/03/30 02:20:08;;;;;;;;;;;;;;;;;;5058634;28;20012;-80
2022/03/30 02:22:34;;;;;;;;;;;;;;;;;;5056941;28;19921;-79
2022/03/30 02:24:59;;;;;;;;;;;;;;;;;;5058570;28;19927;-80
2022/03/30 02:27:25;;;;;;;;;;;;;;;;;;5065070;28;20339;-78
2022/03/30 02:29:51;;;;;;;;;;;;;;;;;;5059434;28;19975;-79
2022/03/30 02:32:17;;;;;;;;;;;;;;;;;;5065532;28;20316;-81
2022/03/30 02:34:43;;;;;;;;;;;;;;;;;;5061472;28;19920;-78
2022/03/30 02:37:09;;;;;;;;;;;;;;;;;;5069632;28;20335;-79
2022/03/30 02:39:35;;;;;;;;;;;;;;;;;;5054587;28;19921;-80
2022/03/30 02:42:01;;;;;;;;;;;;;;;;;;5054121;28;20394;-79
2022/03/30 02:44:26;;;;;;;;;;;;;;;;;;5065161;28;19928;-79
2022/03/30 02:46:52;;;;;;;;;;;;;;;;;;5062661;28;19928;-81
2022/03/30 02:49:17;;;;;;;;;;;;;;;;;;5070138;28;19916;-78
2022/03/30 02:51:43;;;;;;;;;;;;;;;;;;5054110;28;19932;-80
2022/03/30 02:54:08;;;;;;;;;;;;;;;;;;5084629;28;20472;-80
2022/03/30 02:56:34;;;;;;;;;;;;;;;;;;5073533;28;19916;-78
2022/03/30 02:58:59;;;;;;;;;;;;;;;;;;5065991;28;20391;-78
2022/03/30 03:01:25;;;;;;;;;;;;;;;;;;5065022;28;19920;-80
2022/03/30 03:03:50;;;;;;;;;;;;;;;;;;5066342;28;19921;-79
2022/03/30 03:06:16;;;;;;;;;;;;;;;;;;5036681;28;19974;-80
2022/03/30 03:08:41;;;;;;;;;;;;;;;;;;5073544;28;19917;-79
2022/03/30 03:11:06;;;;;;;;;;;;;;;;;;5056745;28;20391;-79
2022/03/30 03:13:32;;;;;;;;;;;;;;;;;;5065135;28;19920;-79
2022/03/30 03:15:57;;;;;;;;;;;;;;;;;;5042869;28;19920;-79
2022/03/30 03:18:23;;;;;;;;;;;;;;;;;;5066852;28;20427;-80
2022/03/30 03:20:49;;;;;;;;;;;;;;;;;;5058378;28;19963;-79
2022/03/30 03:23:15;;;;;;;;;;;;;;;;;;5061247;28;19920;-78
2022/03/30 03:25:41;;;;;;;;;;;;;;;;;;5066432;28;19974;-79
2022/03/30 03:28:07;;;;;;;;;;;;;;;;;;5055829;28;20357;-77
2022/03/30 03:30:32;;;;;;;;;;;;;;;;;;5070132;28;19921;-78
2022/03/30 03:32:59;;;;;;;;;;;;;;;;;;5060532;28;19920;-78
2022/03/30 03:35:25;;;;;;;;;;;;;;;;;;5061460;28;19966;-79
2022/03/30 03:37:51;;;;;;;;;;;;;;;;;;5061651;28;19966;-79
2022/03/30 03:40:17;;;;;;;;;;;;;;;;;;5062457;28;20344;-81
2022/03/30 03:42:42;;;;;;;;;;;;;;;;;;5062677;28;20296;-80
2022/03/30 03:45:08;;;;;;;;;;;;;;;;;;5064768;28;20002;-80
2022/03/30 03:47:33;;;;;;;;;;;;;;;;;;5071556;28;20062;-78
2022/03/30 03:49:59;;;;;;;;;;;;;;;;;;5069308;28;19954;-79
2022/03/30 03:52:24;;;;;;;;;;;;;;;;;;5064827;28;19998;-80
2022/03/30 03:54:50;;;;;;;;;;;;;;;;;;5060664;28;19924;-81
2022/03/30 03:57:15;;;;;;;;;;;;;;;;;;5056168;28;19925;-80
2022/03/30 03:59:41;;;;;;;;;;;;;;;;;;5060512;28;19920;-79
2022/03/30 04:02:07;;;;;;;;;;;;;;;;;;5060036;28;19931;-77
2022/03/30 04:04:35;;;;;;;;;;;;;;;;;;5062859;28;19975;-80
2022/03/30 04:07:00;;;;;;;;;;;;;;;;;;5059125;28;19920;-80
2022/03/30 04:09:26;;;;;;;;;;;;;;;;;;5058834;28;19924;-77
2022/03/30 04:11:52;;;;;;;;;;;;;;;;;;5060938;28;19952;-78
2022/03/30 04:14:19;;;;;;;;;;;;;;;;;;5060524;28;20292;-75
2022/03/30 04:16:45;;;;;;;;;;;;;;;;;;5070061;28;19916;-76
2022/03/30 04:19:11;;;;;;;;;;;;;;;;;;5071792;28;19920;-79
2022/03/30 04:21:36;;;;;;;;;;;;;;;;;;5061407;28;19931;-80
2022/03/30 04:24:02;;;;;;;;;;;;;;;;;;5057934;28;20383;-77
2022/03/30 04:26:27;;;;;;;;;;;;;;;;;;5048918;28;19917;-79
2022/03/30 04:28:53;;;;;;;;;;;;;;;;;;5064627;28;19916;-80
2022/03/30 04:31:18;;;;;;;;;;;;;;;;;;5070385;28;19917;-78
2022/03/30 04:33:43;;;;;;;;;;;;;;;;;;5069699;28;19987;-79
2022/03/30 04:36:09;;;;;;;;;;;;;;;;;;5070804;28;20380;-78
2022/03/30 04:38:35;;;;;;;;;;;;;;;;;;5072025;28;19924;-78
2022/03/30 04:41:00;;;;;;;;;;;;;;;;;;5072654;28;20007;-79
2022/03/30 04:43:27;;;;;;;;;;;;;;;;;;5057811;28;20301;-78
2022/03/30 04:45:54;;;;;;;;;;;;;;;;;;5052822;28;20377;-77
2022/03/30 04:48:20;;;;;;;;;;;;;;;;;;5052413;28;20007;-79
2022/03/30 04:50:45;;;;;;;;;;;;;;;;;;5057809;28;20006;-79
2022/03/30 04:53:11;;;;;;;;;;;;;;;;;;5072675;28;19920;-79
2022/03/30 04:55:36;;;;;;;;;;;;;;;;;;5076330;28;19966;-79
2022/03/30 04:58:02;;;;;;;;;;;;;;;;;;5075922;28;20323;-78
2022/03/30 05:00:28;;;;;;;;;;;;;;;;;;5059049;28;19921;-79
2022/03/30 05:02:53;;;;;;;;;;;;;;;;;;5075960;28;20282;-78
2022/03/30 05:05:19;;;;;;;;;;;;;;;;;;5075101;28;20373;-79
2022/03/30 05:07:44;;;;;;;;;;;;;;;;;;5076365;28;19921;-79
2022/03/30 05:10:10;;;;;;;;;;;;;;;;;;5076642;28;19999;-78
2022/03/30 05:12:36;;;;;;;;;;;;;;;;;;5070674;28;19980;-78
2022/03/30 05:15:01;;;;;;;;;;;;;;;;;;5069201;28;19916;-79
2022/03/30 05:17:27;;;;;;;;;;;;;;;;;;5074106;28;19956;-79
2022/03/30 05:19:52;;;;;;;;;;;;;;;;;;5065495;28;19931;-79
2022/03/30 05:22:18;;;;;;;;;;;;;;;;;;5060096;28;19931;-79
2022/03/30 05:24:43;;;;;;;;;;;;;;;;;;5055887;28;19971;-79
2022/03/30 05:27:09;;;;;;;;;;;;;;;;;;5055639;28;19921;-79
2022/03/30 05:29:35;;;;;;;;;;;;;;;;;;5072289;28;20003;-79
2022/03/30 05:32:00;;;;;;;;;;;;;;;;;;5067044;28;19921;-78
2022/03/30 05:34:26;;;;;;;;;;;;;;;;;;5058419;28;19970;-79
2022/03/30 05:36:51;;;;;;;;;;;;;;;;;;5075372;28;19921;-79
2022/03/30 05:39:17;;;;;;;;;;;;;;;;;;5074933;28;20277;-80
2022/03/30 05:41:43;;;;;;;;;;;;;;;;;;5055634;28;19974;-80
2022/03/30 05:44:08;;;;;;;;;;;;;;;;;;5055138;28;19917;-78
2022/03/30 05:46:36;;;;;;;;;;;;;;;;;;5055021;28;19917;-79
2022/03/30 05:49:02;;;;;;;;;;;;;;;;;;5055214;28;19917;-79
2022/03/30 05:51:28;;;;;;;;;;;;;;;;;;5055912;28;19917;-77
2022/03/30 05:53:53;;;;;;;;;;;;;;;;;;5054913;28;19928;-79
2022/03/30 05:56:59;;;;;;;;;;;;;;;;;;5073258;28;19927;-80
2022/03/30 05:59:04;;;;;;;;;;;;;;;;;;5074652;28;19924;-79
2022/03/30 06:01:29;;;;;;;;;;;;;;;;;;5057831;28;20292;-79
2022/03/30 06:03:55;;;;;;;;;;;;;;;;;;5054544;28;19960;-79
2022/03/30 06:06:20;;;;;;;;;;;;;;;;;;5054954;28;19928;-80
2022/03/30 06:08:45;;;;;;;;;;;;;;;;;;5054585;28;19920;-80
2022/03/30 06:11:11;;;;;;;;;;;;;;;;;;5074038;28;19920;-81
2022/03/30 06:13:36;;;;;;;;;;;;;;;;;;5074251;28;19924;-79
2022/03/30 06:16:02;;;;;;;;;;;;;;;;;;5066207;28;19974;-79
2022/03/30 06:18:27;;;;;;;;;;;;;;;;;;5054501;28;20369;-79
2022/03/30 06:20:53;;;;;;;;;;;;;;;;;;5055191;28;20292;-79
2022/03/30 06:23:18;;;;;;;;;;;;;;;;;;5074264;28;19924;-80
2022/03/30 06:25:44;;;;;;;;;;;;;;;;;;5065089;28;20376;-79
2022/03/30 06:28:10;;;;;;;;;;;;;;;;;;5073448;28;19925;-78
2022/03/30 06:30:35;;;;;;;;;;;;;;;;;;5074130;28;20322;-79
2022/03/30 06:33:01;;;;;;;;;;;;;;;;;;5074351;28;20005;-78
2022/03/30 06:35:26;;;;;;;;;;;;;;;;;;5073436;28;19920;-78
2022/03/30 06:37:52;;;;;;;;;;;;;;;;;;5054917;28;19948;-79
2022/03/30 06:40:18;;;;;;;;;;;;;;;;;;5058090;28;20007;-78
2022/03/30 06:42:44;;;;;;;;;;;;;;;;;;5053994;28;20361;-77
2022/03/30 06:45:11;;;;;;;;;;;;;;;;;;5053872;28;20454;-78
2022/03/30 06:47:36;;;;;;;;;;;;;;;;;;5053848;28;20015;-78
2022/03/30 06:50:02;;;;;;;;;;;;;;;;;;5073289;28;19968;-78
2022/03/30 06:52:31;;;;;;;;;;;;;;;;;;5069832;28;19925;-77
2022/03/30 06:54:57;;;;;;;;;;;;;;;;;;5053789;28;19921;-79
2022/03/30 06:57:22;;;;;;;;;;;;;;;;;;5053731;28;19919;-79
2022/03/30 06:59:48;;;;;;;;;;;;;;;;;;5069826;28;20011;-79
2022/03/30 07:02:13;;;;;;;;;;;;;;;;;;5073356;28;19921;-79
2022/03/30 07:04:39;;;;;;;;;;;;;;;;;;5073616;28;20002;-77
2022/03/30 07:12:33;;;;;;;;;;;;;;;;;;5072736;28;19927;-79
2022/03/30 07:15:00;;;;;;;;;;;;;;;;;;5073519;28;20010;-82
2022/03/30 07:17:26;;;;;;;;;;;;;;;;;;5062659;28;19986;-81
2022/03/30 07:19:52;;;;;;;;;;;;;;;;;;5053288;28;19917;-79
2022/03/30 07:22:17;;;;;;;;;;;;;;;;;;5053388;28;19963;-81
2022/03/30 07:24:43;;;;;;;;;;;;;;;;;;5053164;28;19916;-81
2022/03/30 07:27:08;;;;;;;;;;;;;;;;;;5070762;28;20407;-79
2022/03/30 07:29:34;;;;;;;;;;;;;;;;;;5073278;28;19951;-78
2022/03/30 07:31:59;;;;;;;;;;;;;;;;;;5072743;28;20385;-79
2022/03/30 07:34:25;;;;;;;;;;;;;;;;;;5073088;28;19949;-78
2022/03/30 07:36:50;;;;;;;;;;;;;;;;;;5055973;28;19920;-80
2022/03/30 07:39:16;;;;;;;;;;;;;;;;;;5053135;28;19917;-79
2022/03/30 07:41:42;;;;;;;;;;;;;;;;;;5058595;28;19928;-76
2022/03/30 07:44:07;;;;;;;;;;;;;;;;;;5058125;28;20459;-76
2022/03/30 07:46:33;;;;;;;;;;;;;;;;;;5054035;28;19925;-78
2022/03/30 07:48:58;;;;;;;;;;;;;;;;;;5069659;28;19923;-82
2022/03/30 07:51:24;;;;;;;;;;;;;;;;;;5067061;28;19928;-81
2022/03/30 07:53:49;;;;;;;;;;;;;;;;;;5069431;28;19924;-82
2022/03/30 07:56:15;;;;;;;;;;;;;;;;;;5058505;28;19921;-79
2022/03/30 07:58:40;;;;;;;;;;;;;;;;;;5070338;28;19929;-81
2022/03/30 08:01:06;;;;;;;;;;;;;;;;;;5066276;28;19921;-80
2022/03/30 08:03:32;;;;;;;;;;;;;;;;;;5071578;28;19924;-80
2022/03/30 08:05:57;;;;;;;;;;;;;;;;;;5071629;28;20392;-80
2022/03/30 08:08:22;;;;;;;;;;;;;;;;;;5070343;28;19978;-81
2022/03/30 08:10:48;;;;;;;;;;;;;;;;;;5070115;28;19927;-81
2022/03/30 08:13:14;;;;;;;;;;;;;;;;;;5069870;28;20015;-80
2022/03/30 08:15:39;;;;;;;;;;;;;;;;;;5068543;28;20358;-82
2022/03/30 08:18:07;;;;;;;;;;;;;;;;;;5068397;28;19947;-79
2022/03/30 08:23:17;;;;;;;;;;;;;;;;;;5069768;28;19962;-80
2022/03/30 08:25:42;;;;;;;;;;;;;;;;;;5071466;28;19920;-80
2022/03/30 08:28:08;;;;;;;;;;;;;;;;;;5073175;28;20362;-79
2022/03/30 08:30:34;;;;;;;;;;;;;;;;;;5074186;28;19927;-79
2022/03/30 08:33:01;;;;;;;;;;;;;;;;;;5069372;28;19985;-79
2022/03/30 08:35:27;;;;;;;;;;;;;;;;;;5069936;28;19920;-80
2022/03/30 08:37:52;;;;;;;;;;;;;;;;;;5075076;28;20283;-81
2022/03/30 08:40:18;;;;;;;;;;;;;;;;;;5058152;28;19924;-80
2022/03/30 08:42:43;;;;;;;;;;;;;;;;;;5075705;28;19927;-81
2022/03/30 08:45:09;;;;;;;;;;;;;;;;;;5075949;28;19927;-80
2022/03/30 08:47:35;;;;;;;;;;;;;;;;;;5075513;28;19928;-81
2022/03/30 08:50:01;;;;;;;;;;;;;;;;;;5073539;28;19928;-80
2022/03/30 08:52:26;;;;;;;;;;;;;;;;;;5060903;28;20367;-82
2022/03/30 08:54:52;;;;;;;;;;;;;;;;;;5065259;28;20316;-80
2022/03/30 08:57:19;;;;;;;;;;;;;;;;;;5065332;28;19913;-79
2022/03/30 09:00:04;;;;;;;;;;;;;;;;;;5073456;28;20384;-79
2022/03/30 09:02:33;;;;;;;;;;;;;;;;;;5089169;28;20394;-80
2022/03/30 09:05:15;;;;;;;;;;;;;;;;;;5078836;28;19916;-80
2022/03/30 09:07:42;;;;;;;;;;;;;;;;;;5088136;28;20057;-79
2022/03/30 09:10:14;;;;;;;;;;;;;;;;;;5076891;28;19920;-83
2022/03/30 09:12:40;;;;;;;;;;;;;;;;;;5091488;28;20262;-81
2022/03/30 09:15:08;;;;;;;;;;;;;;;;;;5078722;28;19924;-81
2022/03/30 09:17:38;;;;;;;;;;;;;;;;;;5089797;28;19966;-81
2022/03/30 09:20:04;;;;;;;;;;;;;;;;;;5079703;28;20454;-80
2022/03/30 09:22:31;;;;;;;;;;;;;;;;;;5074870;28;19925;-79
2022/03/30 09:24:56;;;;;;;;;;;;;;;;;;5075333;28;19916;-79
2022/03/30 09:27:23;;;;;;;;;;;;;;;;;;5072668;28;19954;-81
2022/03/30 09:29:49;;;;;;;;;;;;;;;;;;5073344;28;19933;-79
2022/03/30 09:32:15;;;;;;;;;;;;;;;;;;5072254;28;20390;-81
2022/03/30 09:34:48;;;;;;;;;;;;;;;;;;5074225;28;19921;-77
2022/03/30 09:37:14;;;;;;;;;;;;;;;;;;5074547;28;19924;-79
2022/03/30 09:39:40;;;;;;;;;;;;;;;;;;5073954;28;19925;-80
2022/03/30 09:42:07;;;;;;;;;;;;;;;;;;5074025;28;19939;-79
2022/03/30 09:44:44;;;;;;;;;;;;;;;;;;5079660;28;19924;-79
2022/03/30 09:47:10;;;;;;;;;;;;;;;;;;5076332;28;19924;-79
2022/03/30 09:49:38;;;;;;;;;;;;;;;;;;5077735;28;19924;-78
2022/03/30 09:52:10;;;;;;;;;;;;;;;;;;5074575;28;19943;-79
2022/03/30 09:54:40;;;;;;;;;;;;;;;;;;5072289;28;19925;-82
2022/03/30 09:57:13;;;;;;;;;;;;;;;;;;5066771;28;19929;-79
2022/03/30 09:59:55;;;;;;;;;;;;;;;;;;5066953;28;19924;-79
2022/03/30 10:02:20;;;;;;;;;;;;;;;;;;5066390;28;19924;-76
2022/03/30 10:04:46;;;;;;;;;;;;;;;;;;5070811;28;19924;-79
2022/03/30 10:07:12;;;;;;;;;;;;;;;;;;5073727;28;19920;-77
2022/03/30 10:09:39;;;;;;;;;;;;;;;;;;5074671;28;19916;-77
2022/03/30 10:12:05;;;;;;;;;;;;;;;;;;5074460;28;20007;-78
2022/03/30 10:14:32;;;;;;;;;;;;;;;;;;5074513;28;20360;-78
2022/03/30 10:16:57;;;;;;;;;;;;;;;;;;5074525;28;19921;-79
2022/03/30 10:19:23;;;;;;;;;;;;;;;;;;5074394;28;19923;-78
2022/03/30 10:22:01;;;;;;;;;;;;;;;;;;5074722;28;19968;-78
2022/03/30 10:24:45;;;;;;;;;;;;;;;;;;5073713;28;20363;-77
2022/03/30 10:27:30;;;;;;;;;;;;;;;;;;5059573;28;19917;-79
2022/03/30 10:30:00;;;;;;;;;;;;;;;;;;5054273;28;19924;-78
2022/03/30 10:32:32;;;;;;;;;;;;;;;;;;5054035;28;20274;-79
2022/03/30 10:35:02;;;;;;;;;;;;;;;;;;5054724;28;19917;-78
2022/03/30 10:37:28;;;;;;;;;;;;;;;;;;5053982;28;19916;-78
2022/03/30 10:39:57;;;;;;;;;;;;;;;;;;5054143;28;19927;-78
2022/03/30 10:42:23;;;;;;;;;;;;;;;;;;5053594;28;19929;-76
2022/03/30 10:44:51;;;;;;;;;;;;;;;;;;5053954;28;19917;-77
2022/03/30 10:47:18;;;;;;;;;;;;;;;;;;5053983;28;19917;-78
2022/03/30 10:49:45;;;;;;;;;;;;;;;;;;5053808;28;19916;-78
2022/03/30 10:52:28;;;;;;;;;;;;;;;;;;5052698;28;19917;-77
2022/03/30 10:55:12;;;;;;;;;;;;;;;;;;5053844;28;19917;-79
2022/03/30 10:58:01;;;;;;;;;;;;;;;;;;5053206;28;20019;-79
2022/03/30 11:00:27;;;;;;;;;;;;;;;;;;5053469;28;20071;-78
2022/03/30 11:03:04;;;;;;;;;;;;;;;;;;5053584;28;20411;-77
2022/03/30 11:05:30;;;;;;;;;;;;;;;;;;5053589;28;19921;-77
2022/03/30 11:07:55;;;;;;;;;;;;;;;;;;5053499;28;19921;-78
2022/03/30 11:10:25;;;;;;;;;;;;;;;;;;5053387;28;20014;-78
2022/03/30 11:13:05;;;;;;;;;;;;;;;;;;5053286;28;20384;-77
2022/03/30 11:15:31;;;;;;;;;;;;;;;;;;5052869;28;19921;-76
2022/03/30 11:18:16;;;;;;;;;;;;;;;;;;5035394;28;19987;-76
2022/03/30 11:21:01;;;;;;;;;;;;;;;;;;5053369;28;19928;-77
2022/03/30 11:23:28;;;;;;;;;;;;;;;;;;5053316;28;19959;-76
2022/03/30 11:25:56;;;;;;;;;;;;;;;;;;5053719;28;19986;-78
2022/03/30 11:28:33;;;;;;;;;;;;;;;;;;5053893;28;19917;-76
2022/03/30 11:31:01;;;;;;;;;;;;;;;;;;5053239;28;20284;-78
2022/03/30 11:33:28;;;;;;;;;;;;;;;;;;5052762;28;19952;-77
2022/03/30 11:35:54;;;;;;;;;;;;;;;;;;5053240;28;20284;-78
2022/03/30 11:38:22;;;;;;;;;;;;;;;;;;5053873;28;19921;-77
2022/03/30 11:40:48;;;;;;;;;;;;;;;;;;5053003;28;19974;-77
2022/03/30 11:43:16;;;;;;;;;;;;;;;;;;5053264;28;20407;-79
2022/03/30 11:45:41;;;;;;;;;;;;;;;;;;5053178;28;19920;-78
2022/03/30 11:48:10;;;;;;;;;;;;;;;;;;5053042;28;19916;-78
2022/03/30 11:50:43;;;;;;;;;;;;;;;;;;5070134;28;19927;-77
2022/03/30 11:53:14;;;;;;;;;;;;;;;;;;5073464;28;19927;-77
2022/03/30 11:55:51;;;;;;;;;;;;;;;;;;5074472;28;20006;-78
2022/03/30 11:58:29;;;;;;;;;;;;;;;;;;5074333;28;19923;-78
2022/03/30 12:00:56;;;;;;;;;;;;;;;;;;5073063;28;20382;-80
2022/03/30 12:03:22;;;;;;;;;;;;;;;;;;5078272;28;19920;-78
2022/03/30 12:05:51;;;;;;;;;;;;;;;;;;5079232;28;19924;-78
2022/03/30 12:08:17;;;;;;;;;;;;;;;;;;5077001;28;20325;-77
2022/03/30 12:10:42;;;;;;;;;;;;;;;;;;5059947;28;20008;-78
2022/03/30 12:13:08;;;;;;;;;;;;;;;;;;5058910;28;19916;-77
2022/03/30 12:15:35;;;;;;;;;;;;;;;;;;5076885;28;20284;-78
2022/03/30 12:18:01;;;;;;;;;;;;;;;;;;5076839;28;19963;-78
2022/03/30 12:20:28;;;;;;;;;;;;;;;;;;5076672;28;20381;-78
2022/03/30 12:22:58;;;;;;;;;;;;;;;;;;5076729;28;19942;-78
2022/03/30 12:25:28;;;;;;;;;;;;;;;;;;5061140;28;20017;-79
2022/03/30 12:27:53;;;;;;;;;;;;;;;;;;5056677;28;20009;-77
2022/03/30 12:30:19;;;;;;;;;;;;;;;;;;5056487;28;20392;-78
2022/03/30 12:32:44;;;;;;;;;;;;;;;;;;5056473;28;19917;-78
2022/03/30 12:35:11;;;;;;;;;;;;;;;;;;5056406;28;19917;-78
2022/03/30 12:37:37;;;;;;;;;;;;;;;;;;5056460;28;20025;-77
2022/03/30 12:40:11;;;;;;;;;;;;;;;;;;5063513;28;20396;-77
2022/03/30 12:42:37;;;;;;;;;;;;;;;;;;5076253;28;19935;-77
2022/03/30 12:45:05;;;;;;;;;;;;;;;;;;5076280;28;19921;-78
2022/03/30 12:47:35;;;;;;;;;;;;;;;;;;5076262;28;19923;-78
2022/03/30 12:50:04;;;;;;;;;;;;;;;;;;5076231;28;20012;-79
2022/03/30 12:52:35;;;;;;;;;;;;;;;;;;5075850;28;19967;-79
2022/03/30 12:55:18;;;;;;;;;;;;;;;;;;5070261;28;19929;-79
2022/03/30 12:57:51;;;;;;;;;;;;;;;;;;5056023;28;20341;-77
2022/03/30 13:00:18;;;;;;;;;;;;;;;;;;5055873;28;19956;-77
2022/03/30 13:02:43;;;;;;;;;;;;;;;;;;5055952;28;20347;-77
2022/03/30 13:05:20;;;;;;;;;;;;;;;;;;5055908;28;19916;-77
2022/03/30 13:07:49;;;;;;;;;;;;;;;;;;5055891;28;19923;-77
2022/03/30 13:10:16;;;;;;;;;;;;;;;;;;5055724;28;19916;-77
2022/03/30 13:12:43;;;;;;;;;;;;;;;;;;5055159;28;19920;-78
2022/03/30 13:15:13;;;;;;;;;;;;;;;;;;5054642;28;20695;-77
2022/03/30 13:17:55;;;;;;;;;;;;;;;;;;5055749;28;19913;-77
2022/03/30 13:20:21;;;;;;;;;;;;;;;;;;5055550;28;19917;-77
2022/03/30 13:23:05;;;;;;;;;;;;;;;;;;5055601;28;19935;-77
2022/03/30 13:25:35;;;;;;;;;;;;;;;;;;5055415;28;19970;-77
2022/03/30 13:28:04;;;;;;;;;;;;;;;;;;5055053;28;20427;-77
2022/03/30 13:30:30;;;;;;;;;;;;;;;;;;5055844;28;19924;-77
2022/03/30 13:32:56;;;;;;;;;;;;;;;;;;5055558;28;19928;-77
2022/03/30 13:35:22;;;;;;;;;;;;;;;;;;5055408;28;19921;-77
2022/03/30 13:37:47;;;;;;;;;;;;;;;;;;5055313;28;19917;-77
2022/03/30 13:40:13;;;;;;;;;;;;;;;;;;5055234;28;19924;-77
2022/03/30 13:42:38;;;;;;;;;;;;;;;;;;5055172;28;20292;-77
2022/03/30 13:45:04;;;;;;;;;;;;;;;;;;5073149;28;19921;-77
2022/03/30 13:47:30;;;;;;;;;;;;;;;;;;5075156;28;20311;-77
2022/03/30 13:49:55;;;;;;;;;;;;;;;;;;5075165;28;19923;-77
2022/03/30 13:52:23;;;;;;;;;;;;;;;;;;5074950;28;19920;-77
2022/03/30 13:54:48;;;;;;;;;;;;;;;;;;5074952;28;20003;-77
2022/03/30 13:57:14;;;;;;;;;;;;;;;;;;5074904;28;20065;-78
2022/03/30 13:59:40;;;;;;;;;;;;;;;;;;5074102;28;19924;-77
2022/03/30 14:02:05;;;;;;;;;;;;;;;;;;5074819;28;20007;-77
2022/03/30 14:04:32;;;;;;;;;;;;;;;;;;5075314;28;19939;-77
2022/03/30 14:06:57;;;;;;;;;;;;;;;;;;5075237;28;19920;-77
2022/03/30 14:09:23;;;;;;;;;;;;;;;;;;5093732;28;19923;-77
2022/03/30 14:11:48;;;;;;;;;;;;;;;;;;5098368;28;19922;-77
2022/03/30 14:14:14;;;;;;;;;;;;;;;;;;5098512;28;19921;-78
2022/03/30 14:16:39;;;;;;;;;;;;;;;;;;5072533;28;19924;-77
2022/03/30 14:19:05;;;;;;;;;;;;;;;;;;5059905;28;19932;-81
2022/03/30 14:21:30;;;;;;;;;;;;;;;;;;5062695;28;19961;-77
2022/03/30 14:23:56;;;;;;;;;;;;;;;;;;5060920;28;19924;-80
2022/03/30 14:26:22;;;;;;;;;;;;;;;;;;5038147;28;19928;-79
2022/03/30 14:28:47;;;;;;;;;;;;;;;;;;5060510;28;20420;-80
2022/03/30 14:31:13;;;;;;;;;;;;;;;;;;5057920;28;19927;-80
2022/03/30 14:33:38;;;;;;;;;;;;;;;;;;5074039;28;19960;-79
2022/03/30 14:36:04;;;;;;;;;;;;;;;;;;5068467;28;19978;-80
2022/03/30 14:38:30;;;;;;;;;;;;;;;;;;5066104;28;19934;-78
2022/03/30 14:40:58;;;;;;;;;;;;;;;;;;5062975;28;19928;-79
2022/03/30 14:43:24;;;;;;;;;;;;;;;;;;5062957;28;19936;-78
2022/03/30 14:45:50;;;;;;;;;;;;;;;;;;5061252;28;19975;-76
2022/03/30 14:48:16;;;;;;;;;;;;;;;;;;5071985;28;19973;-76
2022/03/30 14:50:42;;;;;;;;;;;;;;;;;;5052033;28;19921;-76
2022/03/30 14:53:07;;;;;;;;;;;;;;;;;;5053819;28;19921;-77
2022/03/30 14:55:33;;;;;;;;;;;;;;;;;;5063492;28;19920;-74
2022/03/30 14:57:58;;;;;;;;;;;;;;;;;;5060325;28;19921;-77
2022/03/30 15:00:24;;;;;;;;;;;;;;;;;;5068966;28;19931;-76
2022/03/30 15:02:50;;;;;;;;;;;;;;;;;;5064936;28;19970;-77
2022/03/30 15:05:15;;;;;;;;;;;;;;;;;;5052093;28;20368;-77
2022/03/30 15:07:41;;;;;;;;;;;;;;;;;;5069012;28;20018;-76
2022/03/30 15:10:07;;;;;;;;;;;;;;;;;;5080081;28;19931;-77
2022/03/30 15:12:33;;;;;;;;;;;;;;;;;;5071909;28;20283;-78
2022/03/30 15:14:59;;;;;;;;;;;;;;;;;;5072536;28;19924;-79
2022/03/30 15:17:24;;;;;;;;;;;;;;;;;;5072183;28;19969;-78
2022/03/30 15:19:50;;;;;;;;;;;;;;;;;;5062544;28;19931;-77
2022/03/30 15:22:15;;;;;;;;;;;;;;;;;;5057019;28;19935;-77
2022/03/30 15:24:41;;;;;;;;;;;;;;;;;;5070970;28;20276;-78
2022/03/30 15:27:06;;;;;;;;;;;;;;;;;;5078751;28;19981;-77
2022/03/30 15:29:35;;;;;;;;;;;;;;;;;;5072349;28;19921;-77
2022/03/30 15:32:01;;;;;;;;;;;;;;;;;;5084650;28;20007;-77
2022/03/30 15:34:27;;;;;;;;;;;;;;;;;;5074147;28;20010;-76
2022/03/30 15:36:53;;;;;;;;;;;;;;;;;;5081402;28;19920;-77
2022/03/30 15:39:18;;;;;;;;;;;;;;;;;;5076691;28;20028;-77
2022/03/30 15:41:46;;;;;;;;;;;;;;;;;;5063327;28;19956;-75
2022/03/30 15:44:12;;;;;;;;;;;;;;;;;;5065610;28;19970;-79
2022/03/30 15:46:38;;;;;;;;;;;;;;;;;;5075733;28;19925;-78
2022/03/30 15:49:03;;;;;;;;;;;;;;;;;;5086830;28;20387;-77
2022/03/30 15:51:33;;;;;;;;;;;;;;;;;;5070415;28;20374;-79
2022/03/30 15:53:59;;;;;;;;;;;;;;;;;;5068816;28;19924;-76
2022/03/30 15:56:24;;;;;;;;;;;;;;;;;;5071047;28;19926;-79
2022/03/30 15:58:50;;;;;;;;;;;;;;;;;;5070828;28;20049;-78
2022/03/30 16:01:16;;;;;;;;;;;;;;;;;;5071105;28;19924;-79
2022/03/30 16:03:42;;;;;;;;;;;;;;;;;;5071211;28;19920;-78
2022/03/30 16:06:07;;;;;;;;;;;;;;;;;;5053886;28;19997;-79
2022/03/30 16:14:01;;;;;;;;;;;;;;;;;;5068216;28;19975;-82
2022/03/30 16:16:27;;;;;;;;;;;;;;;;;;5070425;28;20018;-82
2022/03/30 16:18:53;;;;;;;;;;;;;;;;;;5071982;28;19912;-79
2022/03/30 16:21:18;;;;;;;;;;;;;;;;;;5078460;28;19931;-82
2022/03/30 16:23:45;;;;;;;;;;;;;;;;;;5082050;28;20257;-79
2022/03/30 16:26:11;;;;;;;;;;;;;;;;;;5070822;28;20401;-77
2022/03/30 16:28:36;;;;;;;;;;;;;;;;;;5069805;28;19955;-75
2022/03/30 16:31:02;;;;;;;;;;;;;;;;;;5070486;28;19926;-74
2022/03/30 16:33:28;;;;;;;;;;;;;;;;;;5072205;28;19938;-75
2022/03/30 16:35:53;;;;;;;;;;;;;;;;;;5056749;28;19927;-79
2022/03/30 16:38:22;;;;;;;;;;;;;;;;;;5053139;28;20384;-77
2022/03/30 16:40:47;;;;;;;;;;;;;;;;;;5070984;28;19959;-76
2022/03/30 16:43:13;;;;;;;;;;;;;;;;;;5083730;28;20363;-80
2022/03/30 16:45:40;;;;;;;;;;;;;;;;;;5070958;28;20343;-75
2022/03/30 16:48:06;;;;;;;;;;;;;;;;;;5073405;28;19943;-77
2022/03/30 16:50:31;;;;;;;;;;;;;;;;;;5073298;28;20368;-76
2022/03/30 16:52:57;;;;;;;;;;;;;;;;;;5074295;28;20412;-79
2022/03/30 16:55:23;;;;;;;;;;;;;;;;;;5073805;28;19924;-77
2022/03/30 16:57:48;;;;;;;;;;;;;;;;;;5070446;28;20640;-80
2022/03/30 17:00:14;;;;;;;;;;;;;;;;;;5090795;28;19920;-79